createdAt,value
2022-10-28T00:01:29.007Z,13.92
2022-10-28T00:03:58.292Z,13.92
2022-10-28T00:06:28.094Z,13.91
2022-10-28T00:09:01.063Z,13.89
2022-10-28T00:11:30.322Z,13.86
2022-10-28T00:13:58.879Z,13.87
2022-10-28T00:16:30.720Z,13.87
2022-10-28T00:18:58.596Z,13.85
2022-10-28T00:21:31.000Z,13.82
2022-10-28T00:23:58.310Z,13.79
2022-10-28T00:26:30.680Z,13.76
2022-10-28T00:29:09.633Z,13.75
2022-10-28T00:31:37.168Z,13.77
2022-10-28T00:34:05.686Z,13.76
2022-10-28T00:36:35.552Z,13.71
2022-10-28T00:39:03.695Z,13.68
2022-10-28T00:41:33.516Z,13.67
2022-10-28T00:44:04.110Z,13.67
2022-10-28T00:46:45.397Z,13.66
2022-10-28T00:49:24.229Z,13.66
2022-10-28T00:51:58.781Z,13.66
2022-10-28T00:54:26.581Z,13.67
2022-10-28T00:56:58.244Z,13.65
2022-10-28T00:59:28.183Z,13.63
2022-10-28T01:01:55.469Z,13.61
2022-10-28T01:04:23.426Z,13.59
2022-10-28T01:06:51.595Z,13.62
2022-10-28T01:09:18.318Z,13.60
2022-10-28T01:12:00.140Z,13.57
2022-10-28T01:14:47.533Z,13.57
2022-10-28T01:17:32.725Z,13.56
2022-10-28T01:20:08.377Z,13.58
2022-10-28T01:22:40.941Z,13.56
2022-10-28T01:25:35.591Z,13.54
2022-10-28T01:28:14.513Z,13.54
2022-10-28T01:31:18.644Z,13.53
2022-10-28T01:33:54.432Z,13.52
2022-10-28T01:36:50.211Z,13.51
2022-10-28T01:39:31.459Z,13.46
2022-10-28T01:42:00.896Z,13.44
2022-10-28T01:44:49.271Z,13.44
2022-10-28T01:47:34.908Z,13.43
2022-10-28T01:50:07.811Z,13.43
2022-10-28T01:52:34.883Z,13.40
2022-10-28T01:55:23.572Z,13.39
2022-10-28T01:57:52.672Z,13.39
2022-10-28T02:00:19.528Z,13.38
2022-10-28T02:02:48.137Z,13.37
2022-10-28T02:05:44.553Z,13.35
2022-10-28T02:08:20.228Z,13.32
2022-10-28T02:11:07.025Z,13.32
2022-10-28T02:13:46.779Z,13.31
2022-10-28T02:16:36.917Z,13.33
2022-10-28T02:19:12.611Z,13.35
2022-10-28T02:21:46.771Z,13.37
2022-10-28T02:24:22.991Z,13.35
2022-10-28T02:27:00.090Z,13.32
2022-10-28T02:29:38.811Z,13.30
2022-10-28T02:32:12.287Z,13.29
2022-10-28T02:34:47.318Z,13.30
2022-10-28T02:37:30.037Z,13.28
2022-10-28T02:40:01.698Z,13.25
2022-10-28T02:42:33.644Z,13.21
2022-10-28T02:45:07.338Z,13.23
2022-10-28T02:47:37.920Z,13.25
2022-10-28T02:50:09.458Z,13.26
2022-10-28T02:52:36.626Z,13.26
2022-10-28T02:55:05.448Z,13.27
2022-10-28T02:57:36.152Z,13.27
2022-10-28T03:00:08.171Z,13.27
2022-10-28T03:02:34.976Z,13.29
2022-10-28T03:05:03.101Z,13.28
2022-10-28T03:07:29.966Z,13.29
2022-10-28T03:09:56.563Z,13.31
2022-10-28T03:12:23.153Z,13.31
2022-10-28T03:14:49.847Z,13.33
2022-10-28T03:17:16.509Z,13.37
2022-10-28T03:19:43.114Z,13.37
2022-10-28T03:22:09.719Z,13.37
2022-10-28T03:24:36.422Z,13.37
2022-10-28T03:27:03.151Z,13.37
2022-10-28T03:29:29.739Z,13.35
2022-10-28T03:31:56.448Z,13.35
2022-10-28T03:34:23.681Z,13.33
2022-10-28T03:36:50.364Z,13.35
2022-10-28T03:39:17.058Z,13.32
2022-10-28T03:41:43.655Z,13.32
2022-10-28T03:44:10.269Z,13.33
2022-10-28T03:46:36.892Z,13.32
2022-10-28T03:49:04.102Z,13.32
2022-10-28T03:51:30.718Z,13.34
2022-10-28T03:53:57.356Z,13.33
2022-10-28T03:56:23.995Z,13.35
2022-10-28T04:01:17.490Z,13.38
2022-10-28T04:03:44.898Z,13.40
2022-10-28T04:06:11.639Z,13.44
2022-10-28T04:08:38.606Z,13.46
2022-10-28T04:11:05.522Z,13.47
2022-10-28T04:13:32.165Z,13.48
2022-10-28T04:15:58.808Z,13.48
2022-10-28T04:18:25.482Z,13.49
2022-10-28T04:20:52.207Z,13.49
2022-10-28T04:23:19.538Z,13.51
2022-10-28T04:25:46.634Z,13.52
2022-10-28T04:28:13.317Z,13.52
2022-10-28T04:30:39.908Z,13.54
2022-10-28T04:33:06.553Z,13.56
2022-10-28T04:35:33.820Z,13.58
2022-10-28T04:38:00.598Z,13.61
2022-10-28T04:40:27.232Z,13.66
2022-10-28T04:42:54.211Z,13.67
2022-10-28T04:45:20.999Z,13.68
2022-10-28T04:47:47.834Z,13.69
2022-10-28T04:50:14.603Z,13.70
2022-10-28T04:52:41.203Z,13.71
2022-10-28T04:55:08.190Z,13.74
2022-10-28T04:57:34.719Z,13.78
2022-10-28T05:00:01.321Z,13.81
2022-10-28T05:02:27.961Z,13.83
2022-10-28T05:04:54.767Z,13.86
2022-10-28T05:07:23.529Z,13.89
2022-10-28T05:09:50.398Z,13.96
2022-10-28T05:12:16.998Z,14.01
2022-10-28T05:14:43.587Z,14.04
2022-10-28T05:17:11.367Z,14.03
2022-10-28T05:19:37.998Z,14.05
2022-10-28T05:22:04.610Z,14.10
2022-10-28T05:24:31.229Z,14.10
2022-10-28T05:26:59.997Z,14.09
2022-10-28T05:29:30.912Z,14.12
2022-10-28T05:32:00.748Z,14.11
2022-10-28T05:34:28.107Z,14.15
2022-10-28T05:36:55.029Z,14.16
2022-10-28T05:39:21.647Z,14.14
2022-10-28T05:41:48.293Z,14.23
2022-10-28T05:44:14.941Z,14.27
2022-10-28T05:46:41.588Z,14.28
2022-10-28T05:49:08.179Z,14.32
2022-10-28T05:51:34.794Z,14.34
2022-10-28T05:54:01.368Z,14.33
2022-10-28T05:56:27.949Z,14.36
2022-10-28T05:58:54.546Z,14.37
2022-10-28T06:01:21.189Z,14.35
2022-10-28T06:03:48.701Z,14.34
2022-10-28T06:06:15.452Z,14.33
2022-10-28T06:08:42.271Z,14.33
2022-10-28T06:11:07.424Z,14.35
2022-10-28T06:13:34.051Z,14.34
2022-10-28T06:16:00.675Z,14.36
2022-10-28T06:18:27.304Z,14.36
2022-10-28T06:20:56.236Z,14.38
2022-10-28T06:23:24.837Z,14.41
2022-10-28T06:28:30.827Z,14.46
2022-10-28T06:31:07.274Z,14.47
2022-10-28T06:33:34.890Z,14.47
2022-10-28T06:36:02.356Z,14.45
2022-10-28T06:38:29.266Z,14.46
2022-10-28T06:40:58.027Z,14.45
2022-10-28T06:43:25.071Z,14.50
2022-10-28T06:45:55.346Z,14.52
2022-10-28T06:48:24.110Z,14.58
2022-10-28T06:50:50.769Z,14.59
2022-10-28T06:53:17.448Z,14.58
2022-10-28T06:55:48.839Z,14.61
2022-10-28T06:58:15.592Z,14.65
2022-10-28T07:00:42.210Z,14.76
2022-10-28T07:03:10.816Z,14.78
2022-10-28T07:05:37.757Z,14.81
2022-10-28T07:08:05.000Z,14.78
2022-10-28T07:10:31.677Z,14.78
2022-10-28T07:12:58.489Z,14.81
2022-10-28T07:15:25.967Z,14.75
2022-10-28T07:17:57.868Z,14.66
2022-10-28T07:20:27.411Z,14.52
2022-10-28T07:23:01.735Z,14.34
2022-10-28T07:25:30.878Z,14.11
2022-10-28T07:27:58.958Z,13.99
2022-10-28T07:30:26.504Z,13.88
2022-10-28T07:32:53.347Z,13.80
2022-10-28T07:35:20.194Z,13.74
2022-10-28T07:37:47.112Z,13.66
2022-10-28T07:40:14.247Z,13.58
2022-10-28T07:42:40.990Z,13.50
2022-10-28T07:45:08.061Z,13.44
2022-10-28T07:47:34.708Z,13.42
2022-10-28T07:50:01.316Z,13.35
2022-10-28T07:52:27.974Z,13.36
2022-10-28T07:54:54.606Z,13.35
2022-10-28T07:57:21.189Z,13.41
2022-10-28T07:59:48.013Z,13.37
2022-10-28T08:02:17.796Z,13.41
2022-10-28T08:04:45.239Z,13.40
2022-10-28T08:07:13.630Z,13.39
2022-10-28T08:09:41.365Z,13.43
2022-10-28T08:12:09.154Z,13.44
2022-10-28T08:14:35.793Z,13.45
2022-10-28T08:17:02.490Z,13.48
2022-10-28T08:19:29.162Z,13.48
2022-10-28T08:21:55.972Z,13.51
2022-10-28T08:24:22.886Z,13.54
2022-10-28T08:26:49.898Z,13.54
2022-10-28T08:29:16.776Z,13.57
2022-10-28T08:31:43.359Z,13.62
2022-10-28T08:34:10.757Z,13.63
2022-10-28T08:36:37.765Z,13.61
2022-10-28T08:39:04.761Z,13.62
2022-10-28T08:41:48.191Z,13.62
2022-10-28T08:44:31.066Z,13.64
2022-10-28T08:47:13.998Z,13.66
2022-10-28T08:49:44.461Z,13.70
2022-10-28T08:52:32.997Z,13.75
2022-10-28T08:55:07.780Z,13.78
2022-10-28T08:57:40.797Z,13.78
2022-10-28T09:00:16.929Z,13.82
2022-10-28T09:02:52.519Z,13.84
2022-10-28T09:05:25.207Z,13.89
2022-10-28T09:07:53.751Z,13.90
2022-10-28T09:10:42.532Z,13.92
2022-10-28T09:13:34.905Z,13.88
2022-10-28T09:16:16.722Z,13.85
2022-10-28T09:18:53.288Z,13.76
2022-10-28T09:21:31.030Z,13.70
2022-10-28T09:23:59.856Z,13.67
2022-10-28T09:26:45.039Z,13.68
2022-10-28T09:29:44.296Z,13.68
2022-10-28T09:32:20.392Z,13.77
2022-10-28T09:35:00.128Z,13.83
2022-10-28T09:37:39.661Z,13.86
2022-10-28T09:40:39.676Z,13.80
2022-10-28T09:43:06.201Z,13.83
2022-10-28T09:45:37.405Z,13.75
2022-10-28T09:48:31.015Z,13.66
2022-10-28T09:50:59.173Z,13.63
2022-10-28T09:53:53.143Z,13.70
2022-10-28T09:56:20.124Z,13.79
2022-10-28T09:58:48.654Z,13.83
2022-10-28T10:01:17.966Z,13.90
2022-10-28T10:03:47.852Z,13.95
2022-10-28T10:06:21.898Z,14.00
2022-10-28T10:08:48.855Z,13.93
2022-10-28T10:11:42.894Z,13.93
2022-10-28T10:14:19.401Z,13.81
2022-10-28T10:16:51.447Z,13.81
2022-10-28T10:19:18.266Z,13.86
2022-10-28T10:21:54.231Z,13.93
2022-10-28T10:24:31.282Z,13.96
2022-10-28T10:27:02.424Z,14.02
2022-10-28T10:29:30.772Z,14.00
2022-10-28T10:32:32.961Z,13.99
2022-10-28T10:35:18.483Z,14.01
2022-10-28T10:37:47.249Z,14.06
2022-10-28T10:40:23.082Z,14.08
2022-10-28T10:43:09.594Z,14.06
2022-10-28T10:45:36.751Z,14.03
2022-10-28T10:48:12.067Z,14.07
2022-10-28T10:50:39.471Z,14.09
2022-10-28T10:53:06.181Z,14.04
2022-10-28T10:55:36.732Z,14.09
2022-10-28T10:58:05.537Z,14.17
2022-10-28T11:00:47.980Z,14.16
2022-10-28T11:03:39.105Z,14.07
2022-10-28T11:06:23.089Z,14.04
2022-10-28T11:08:56.975Z,14.06
2022-10-28T11:11:32.581Z,14.07
2022-10-28T11:14:18.176Z,14.09
2022-10-28T11:16:54.098Z,14.04
2022-10-28T11:19:28.597Z,14.11
2022-10-28T11:22:28.963Z,14.14
2022-10-28T11:25:29.194Z,14.10
2022-10-28T11:28:14.212Z,14.14
2022-10-28T11:31:08.601Z,14.17
2022-10-28T11:33:44.073Z,14.27
2022-10-28T11:36:25.279Z,14.31
2022-10-28T11:39:03.794Z,14.33
2022-10-28T11:42:02.574Z,14.40
2022-10-28T11:44:56.806Z,14.40
2022-10-28T11:48:00.919Z,14.49
2022-10-28T11:50:46.451Z,14.52
2022-10-28T11:53:21.878Z,14.58
2022-10-28T11:55:59.406Z,14.62
2022-10-28T11:58:51.064Z,14.71
2022-10-28T12:02:15.677Z,14.79
2022-10-28T12:04:52.686Z,14.88
2022-10-28T12:07:39.479Z,14.86
2022-10-28T12:10:36.865Z,14.78
2022-10-28T12:13:25.686Z,14.76
2022-10-28T12:16:07.363Z,14.78
2022-10-28T12:18:58.984Z,14.87
2022-10-28T12:24:14.737Z,14.95
2022-10-28T12:26:45.756Z,14.91
2022-10-28T12:29:22.333Z,14.96
2022-10-28T12:32:12.575Z,14.90
2022-10-28T12:34:47.503Z,14.86
2022-10-28T12:37:37.680Z,14.84
2022-10-28T12:40:46.217Z,14.78
2022-10-28T12:43:25.073Z,14.72
2022-10-28T12:45:56.327Z,14.65
2022-10-28T12:48:35.474Z,14.71
2022-10-28T12:51:14.974Z,14.70
2022-10-28T12:53:46.406Z,14.82
2022-10-28T12:56:22.512Z,14.89
2022-10-28T12:59:01.349Z,14.95
2022-10-28T13:01:31.447Z,15.04
2022-10-28T13:03:58.502Z,15.07
2022-10-28T13:06:55.908Z,15.08
2022-10-28T13:09:37.930Z,15.07
2022-10-28T13:12:15.543Z,15.10
2022-10-28T13:15:10.060Z,15.15
2022-10-28T13:17:49.058Z,15.16
2022-10-28T13:20:41.721Z,15.15
2022-10-28T13:23:30.118Z,15.14
2022-10-28T13:26:08.672Z,15.11
2022-10-28T13:28:42.942Z,15.11
2022-10-28T13:31:09.998Z,15.12
2022-10-28T13:33:38.613Z,15.07
2022-10-28T13:36:15.830Z,15.06
2022-10-28T13:38:43.082Z,15.02
2022-10-28T13:41:25.890Z,14.96
2022-10-28T13:43:54.402Z,14.96
2022-10-28T13:46:58.366Z,14.86
2022-10-28T13:49:30.054Z,14.89
2022-10-28T13:52:05.195Z,14.90
2022-10-28T13:54:56.418Z,14.87
2022-10-28T13:57:25.982Z,14.88
2022-10-28T13:59:59.816Z,14.83
2022-10-28T14:02:46.008Z,14.87
2022-10-28T14:05:15.706Z,14.86
2022-10-28T14:08:17.468Z,14.94
2022-10-28T14:11:08.588Z,14.96
2022-10-28T14:13:46.943Z,14.96
2022-10-28T14:16:29.182Z,14.88
2022-10-28T14:19:10.715Z,14.82
2022-10-28T14:21:40.678Z,14.73
2022-10-28T14:24:10.608Z,14.72
2022-10-28T14:27:08.673Z,14.70
2022-10-28T14:30:10.155Z,14.62
2022-10-28T14:32:43.015Z,14.64
2022-10-28T14:35:15.418Z,14.66
2022-10-28T14:38:03.784Z,14.71
2022-10-28T14:40:51.606Z,14.76
2022-10-28T14:43:22.153Z,14.82
2022-10-28T14:46:01.079Z,14.82
2022-10-28T14:48:36.264Z,14.84
2022-10-28T14:51:03.763Z,14.87
2022-10-28T14:53:35.540Z,14.90
2022-10-28T14:56:24.347Z,14.92
2022-10-28T14:58:52.561Z,14.92
2022-10-28T15:01:26.416Z,14.88
2022-10-28T15:04:06.365Z,14.89
2022-10-28T15:06:42.609Z,14.87
2022-10-28T15:09:21.814Z,14.80
2022-10-28T15:12:05.879Z,14.78
2022-10-28T15:14:36.825Z,14.70
2022-10-28T15:17:27.518Z,14.72
2022-10-28T15:19:59.302Z,14.71
2022-10-28T15:22:32.199Z,14.69
2022-10-28T15:25:13.403Z,14.71
2022-10-28T15:27:42.881Z,14.75
2022-10-28T15:30:21.189Z,14.81
2022-10-28T15:32:47.942Z,14.83
2022-10-28T15:35:38.443Z,14.85
2022-10-28T15:38:32.172Z,14.82
2022-10-28T15:40:59.049Z,14.82
2022-10-28T15:43:30.870Z,14.78
2022-10-28T15:46:15.437Z,14.69
2022-10-28T15:48:42.666Z,14.51
2022-10-28T15:51:13.432Z,14.42
2022-10-28T15:53:43.452Z,14.39
2022-10-28T15:56:19.816Z,14.28
2022-10-28T15:58:50.433Z,14.32
2022-10-28T16:01:39.279Z,14.18
2022-10-28T16:04:18.091Z,14.11
2022-10-28T16:06:45.960Z,14.02
2022-10-28T16:09:18.974Z,13.96
2022-10-28T16:11:50.161Z,13.88
2022-10-28T16:14:39.218Z,13.89
2022-10-28T16:17:16.329Z,13.84
2022-10-28T16:19:59.981Z,13.81
2022-10-28T16:22:32.616Z,13.79
2022-10-28T16:24:59.467Z,13.67
2022-10-28T16:27:31.338Z,13.54
2022-10-28T16:29:58.050Z,13.53
2022-10-28T16:32:34.897Z,13.44
2022-10-28T16:35:02.206Z,13.35
2022-10-28T16:37:32.079Z,13.31
2022-10-28T16:39:58.909Z,13.24
2022-10-28T16:42:26.436Z,13.19
2022-10-28T16:44:53.119Z,13.11
2022-10-28T16:47:22.218Z,13.07
2022-10-28T16:49:52.679Z,12.94
2022-10-28T16:52:29.197Z,12.87
2022-10-28T16:54:56.836Z,12.80
2022-10-28T16:59:55.889Z,12.65
2022-10-28T17:02:30.996Z,12.57
2022-10-28T17:04:58.773Z,12.53
2022-10-28T17:07:26.549Z,12.50
2022-10-28T17:09:53.234Z,12.48
2022-10-28T17:12:26.030Z,12.43
2022-10-28T17:14:53.182Z,12.39
2022-10-28T17:17:19.776Z,12.36
2022-10-28T17:19:46.870Z,12.28
2022-10-28T17:22:14.062Z,12.27
2022-10-28T17:24:40.733Z,12.23
2022-10-28T17:27:08.114Z,12.18
2022-10-28T17:29:35.032Z,12.14
2022-10-28T17:32:02.498Z,12.11
2022-10-28T17:34:29.304Z,12.07
2022-10-28T17:36:56.260Z,12.06
2022-10-28T17:39:26.111Z,12.01
2022-10-28T17:41:53.265Z,12.01
2022-10-28T17:44:19.939Z,11.98
2022-10-28T17:46:49.086Z,11.95
2022-10-28T17:49:15.804Z,11.92
2022-10-28T17:51:42.501Z,11.87
2022-10-28T17:54:09.448Z,11.86
2022-10-28T17:56:36.936Z,11.81
2022-10-28T17:59:04.645Z,11.77
2022-10-28T18:01:33.466Z,11.72
2022-10-28T18:04:00.635Z,11.67
2022-10-28T18:06:27.280Z,11.65
2022-10-28T18:08:53.935Z,11.61
2022-10-28T18:11:21.115Z,11.61
2022-10-28T18:13:49.990Z,11.54
2022-10-28T18:16:25.420Z,11.52
2022-10-28T18:18:53.327Z,11.51
2022-10-28T18:21:20.466Z,11.47
2022-10-28T18:23:54.667Z,11.42
2022-10-28T18:26:21.480Z,11.38
2022-10-28T18:28:49.157Z,11.32
2022-10-28T18:31:20.449Z,11.31
2022-10-28T18:33:47.486Z,11.28
2022-10-28T18:36:17.079Z,11.28
2022-10-28T18:38:44.000Z,11.25
2022-10-28T18:41:16.278Z,11.23
2022-10-28T18:43:42.984Z,11.17
2022-10-28T18:46:10.126Z,11.15
2022-10-28T18:48:36.914Z,11.10
2022-10-28T18:51:09.661Z,11.02
2022-10-28T18:53:42.277Z,10.95
2022-10-28T18:56:13.129Z,10.86
2022-10-28T18:58:39.904Z,10.84
2022-10-28T19:01:11.241Z,10.81
2022-10-28T19:03:38.477Z,10.73
2022-10-28T19:06:10.903Z,10.74
2022-10-28T19:08:38.577Z,10.70
2022-10-28T19:11:06.179Z,10.71
2022-10-28T19:13:38.670Z,10.68
2022-10-28T19:16:05.908Z,10.69
2022-10-28T19:18:35.475Z,10.71
2022-10-28T19:21:11.789Z,10.68
2022-10-28T19:23:38.767Z,10.62
2022-10-28T19:26:07.116Z,10.61
2022-10-28T19:28:41.380Z,10.51
2022-10-28T19:31:14.075Z,10.50
2022-10-28T19:33:43.172Z,10.44
2022-10-28T19:36:24.867Z,10.43
2022-10-28T19:38:55.511Z,10.44
2022-10-28T19:41:24.583Z,10.43
2022-10-28T19:43:59.624Z,10.46
2022-10-28T19:46:28.175Z,10.50
2022-10-28T19:48:58.247Z,10.53
2022-10-28T19:51:30.605Z,10.55
2022-10-28T19:53:59.652Z,10.59
2022-10-28T19:56:27.840Z,10.58
2022-10-28T19:58:57.264Z,10.60
2022-10-28T20:01:29.820Z,10.60
2022-10-28T20:03:57.250Z,10.59
2022-10-28T20:06:26.470Z,10.59
2022-10-28T20:08:53.499Z,10.55
2022-10-28T20:11:25.853Z,10.56
2022-10-28T20:13:55.287Z,10.61
2022-10-28T20:16:22.754Z,10.61
2022-10-28T20:18:49.388Z,10.57
2022-10-28T20:21:18.173Z,10.58
2022-10-28T20:23:47.046Z,10.63
2022-10-28T20:26:14.609Z,10.62
2022-10-28T20:28:41.648Z,10.63
2022-10-28T20:31:13.854Z,10.60
2022-10-28T20:33:42.589Z,10.63
2022-10-28T20:36:25.919Z,10.62
2022-10-28T20:38:55.809Z,10.66
2022-10-28T20:41:23.954Z,10.64
2022-10-28T20:43:51.838Z,10.66
2022-10-28T20:46:20.191Z,10.66
2022-10-28T20:48:47.626Z,10.62
2022-10-28T20:51:15.173Z,10.62
2022-10-28T20:53:41.905Z,10.58
2022-10-28T20:56:14.892Z,10.58
2022-10-28T20:58:41.517Z,10.64
2022-10-28T21:01:17.503Z,10.61
2022-10-28T21:03:44.700Z,10.62
2022-10-28T21:08:41.669Z,10.59
2022-10-28T21:11:12.124Z,10.60
2022-10-28T21:13:38.844Z,10.60
2022-10-28T21:16:07.538Z,10.59
2022-10-28T21:18:35.955Z,10.59
2022-10-28T21:21:02.949Z,10.59
2022-10-28T21:23:30.571Z,10.60
2022-10-28T21:26:07.927Z,10.61
2022-10-28T21:28:38.780Z,10.65
2022-10-28T21:31:14.043Z,10.67
2022-10-28T21:33:41.905Z,10.70
2022-10-28T21:36:12.388Z,10.71
2022-10-28T21:38:39.994Z,10.73
2022-10-28T21:41:08.831Z,10.75
2022-10-28T21:43:37.770Z,10.74
2022-10-28T21:46:05.324Z,10.76
2022-10-28T21:48:33.303Z,10.79
2022-10-28T21:51:02.334Z,10.79
2022-10-28T21:53:32.579Z,10.77
2022-10-28T21:56:28.543Z,10.77
2022-10-28T21:58:55.173Z,10.75
2022-10-28T22:01:24.225Z,10.78
2022-10-28T22:03:52.213Z,10.80
2022-10-28T22:06:18.872Z,10.79
2022-10-28T22:08:47.044Z,10.78
2022-10-28T22:11:19.080Z,10.78
2022-10-28T22:13:47.121Z,10.81
2022-10-28T22:16:15.731Z,10.80
2022-10-28T22:18:43.134Z,10.80
2022-10-28T22:21:15.785Z,10.80
2022-10-28T22:23:42.911Z,10.80
2022-10-28T22:26:12.498Z,10.76
2022-10-28T22:28:39.496Z,10.77
2022-10-28T22:31:08.792Z,10.76
2022-10-28T22:33:35.975Z,10.74
2022-10-28T22:36:05.571Z,10.73
2022-10-28T22:38:32.325Z,10.74
2022-10-28T22:41:06.438Z,10.75
2022-10-28T22:43:33.553Z,10.75
2022-10-28T22:46:00.790Z,10.74
2022-10-28T22:48:28.151Z,10.75
2022-10-28T22:50:54.817Z,10.77
2022-10-28T22:53:22.061Z,10.77
2022-10-28T22:55:49.317Z,10.78
2022-10-28T22:58:16.852Z,10.80
2022-10-28T23:00:47.146Z,10.81
2022-10-28T23:03:13.934Z,10.82
2022-10-28T23:05:40.744Z,10.84
2022-10-28T23:08:07.690Z,10.85
2022-10-28T23:10:34.582Z,10.85
2022-10-28T23:13:02.705Z,10.85
2022-10-28T23:15:30.301Z,10.85
2022-10-28T23:17:57.343Z,10.85
2022-10-28T23:20:25.276Z,10.85
2022-10-28T23:22:55.385Z,10.85
2022-10-28T23:25:21.980Z,10.87
2022-10-28T23:27:48.584Z,10.87
2022-10-28T23:30:15.370Z,10.89
2022-10-28T23:32:41.982Z,10.92
2022-10-28T23:35:08.753Z,10.91
2022-10-28T23:37:35.370Z,10.92
2022-10-28T23:40:02.074Z,10.95
2022-10-28T23:42:28.731Z,10.97
2022-10-28T23:44:55.330Z,10.99
2022-10-28T23:47:21.914Z,10.97
2022-10-28T23:49:48.557Z,11.00
2022-10-28T23:52:15.178Z,11.01
2022-10-28T23:54:42.446Z,11.02
2022-10-28T23:57:09.114Z,11.02
2022-10-28T23:59:35.882Z,11.05
